EDLW

Dortmund Airport

Dortmund, Germany
TAF EDLW 191700Z 1918/2018 07010KT 9999 BKN030 TEMPO 2000/2004 BKN014 BECMG 2009/2012 07015G25KT PROB40 TEMPO 2013/2018 2000 SNRA BKN010 BECMG 2015/2018 08010KT
Issued Valid From Valid To
Nov-19 @ 17:00 UTC
(5 hours ago)
Nov-19 @ 18:00 UTC
(4 hours ago)
Nov-20 @ 18:00 UTC
(in 20 hours)
Nov-19 @ 18:00 to Nov-20 @ 09:00
TAF EDLW 191700Z 1918/2018 07010KT 9999 BKN030
Wind Visibility Clouds
70° at 10 knots 10,000+ meters
  • Broken at 3,000' AGL
Temporary Nov-20 @ 00:00 to Nov-20 @ 04:00
TEMPO 2000/2004 BKN014
Clouds
  • Broken at 1,400' AGL
Becoming Nov-20 @ 09:00 to Nov-20 @ 15:00
BECMG 2009/2012 07015G25KT
Wind Visibility Clouds
70° at 15 knots
 Gusting to 25 knots
10,000+ meters
  • Broken at 3,000' AGL
Temporary  (Probability 40%) Nov-20 @ 13:00 to Nov-20 @ 18:00
PROB40 TEMPO 2013/2018 2000 SNRA BKN010
Visibility Clouds Conditions
1,996 meters
  • Broken at 1,000' AGL
  • Snow
  • Rain
Becoming Nov-20 @ 15:00 to Nov-20 @ 18:00
BECMG 2015/2018 08010KT
Wind Visibility Clouds
80° at 10 knots 10,000+ meters
  • Broken at 3,000' AGL
TAF EDLW 191700Z 1918/2018 07010KT 9999 BKN030 TEMPO 2000/2004 BKN014 BECMG 2009/2012 07015G25KT PROB40 TEMPO 2013/2018 2000 SNRA BKN010 BECMG 2015/2018 08010KT
Issued Nov-19 @ 17:00 UTC
(5 hours ago)
Valid From Nov-19 @ 18:00 UTC
(4 hours ago)
Valid To Nov-20 @ 18:00 UTC
(in 20 hours)
Nov-19 @ 18:00 - Nov-20 @ 09:00
Wind Visibility
70° at 10 knots 10,000+ meters
Clouds
  • Broken at 3,000' AGL
Temporary Nov-20 @ 00:00 - Nov-20 @ 04:00
Clouds
  • Broken at 1,400' AGL
Becoming Nov-20 @ 09:00 - Nov-20 @ 15:00
Wind Visibility
70° at 15 knots
 Gusting to 25 knots
10,000+ meters
Clouds
  • Broken at 3,000' AGL
Probability 40% Temporary Nov-20 @ 13:00 - Nov-20 @ 18:00
Clouds
  • Broken at 1,000' AGL
Conditions
  • Snow
  • Rain
Becoming Nov-20 @ 15:00 - Nov-20 @ 18:00
Wind Visibility
80° at 10 knots 10,000+ meters
Clouds
  • Broken at 3,000' AGL